Pauline, South Carolina
Current Conditions -  °F | °C
As of 11:35 AM on Thursday 30 Oct 2014 (Local Time) from KSPA Reporting Station
Clear Clear  
Wind Chill: 63°   Ceiling: Unl
Heat Index: 63°   Visibility: 10mi
Dew Point: 37°   Wind: 5mph
Humidity: 39%   Direction: 50°NE
Pressure: 30.08"   Gusts: NA
Location:  34.83°N, 81.87°W
Report Text: KSPA 301535Z AUTO 05004KT 10SM CLR 17/03 A3008 RMK AO2
Loading
Personal Weather Stations






























Interactive Weather Map
Tropical Storm Tracking
New forecast layout! Learn more

10-Day Weather Forecast

Advertisements
Track Severe Weather on mobile